Time;durP1;ratioP1;P1;durP2;ratioP2;P2;SDS_P1;SDS_P2;PMS_P1;PMS_P2;Temp;Humidity;BMP_temperature;BMP_pressure;BME280_temperature;BME280_humidity;BME280_pressure;Samples;Min_cycle;Max_cycle;Signal;HPM_P1;HPM_P2
2021/12/20 00:01:31;;;;;;;4.60;2.40;;;;;;;-0.31;91.00;96270.91;107766;1283;37459;-76
2021/12/20 00:04:00;;;;;;;3.60;2.00;;;;;;;-0.31;91.52;96273.30;107699;1284;45111;-75
2021/12/20 00:06:28;;;;;;;5.20;2.80;;;;;;;-0.31;91.43;96279.04;107862;1283;33915;-75
2021/12/20 00:08:58;;;;;;;5.10;2.60;;;;;;;-0.32;91.26;96275.33;107745;1283;50311;-75
2021/12/20 00:11:26;;;;;;;7.40;2.90;;;;;;;-0.32;91.31;96280.36;107739;1282;38606;-75
2021/12/20 00:13:55;;;;;;;8.00;2.70;;;;;;;-0.31;91.27;96291.70;107871;1284;33370;-75
2021/12/20 00:16:23;;;;;;;7.80;3.20;;;;;;;-0.32;91.03;96277.65;107701;1282;44824;-75
2021/12/20 00:18:52;;;;;;;5.50;3.10;;;;;;;-0.33;90.89;96283.40;107761;1284;42607;-75
2021/12/20 00:21:21;;;;;;;6.60;3.40;;;;;;;-0.37;90.74;96283.13;107788;1283;38010;-76
2021/12/20 00:23:49;;;;;;;6.10;2.70;;;;;;;-0.39;90.93;96288.96;107744;1284;40967;-75
2021/12/20 00:26:18;;;;;;;5.10;2.70;;;;;;;-0.38;90.94;96289.42;107725;1282;38390;-76
2021/12/20 00:28:46;;;;;;;6.30;3.50;;;;;;;-0.37;90.67;96285.17;107753;1284;34418;-75
2021/12/20 00:31:15;;;;;;;5.50;3.30;;;;;;;-0.39;90.84;96287.88;107721;1281;41204;-76
2021/12/20 00:33:43;;;;;;;7.10;2.60;;;;;;;-0.41;90.86;96298.20;107818;1283;30337;-75
2021/12/20 00:36:20;;;;;;;7.50;3.10;;;;;;;-0.45;90.70;96297.70;107739;1284;51930;-75
2021/12/20 00:41:36;;;;;;;6.80;3.60;;;;;;;-0.45;90.70;96301.59;107792;1283;39149;-76
2021/12/20 00:44:05;;;;;;;5.90;3.00;;;;;;;-0.43;90.69;96310.53;107778;1284;38361;-76
2021/12/20 00:46:34;;;;;;;7.30;3.00;;;;;;;-0.44;90.57;96312.35;107770;1284;33245;-76
2021/12/20 00:49:02;;;;;;;6.40;3.10;;;;;;;-0.46;90.62;96309.64;107862;1283;39526;-76
2021/12/20 00:51:31;;;;;;;4.20;2.50;;;;;;;-0.46;90.29;96297.19;107841;1284;40293;-76
2021/12/20 00:53:59;;;;;;;4.70;3.10;;;;;;;-0.46;90.12;96304.73;107865;1284;32573;-76
2021/12/20 00:56:27;;;;;;;3.30;1.60;;;;;;;-0.47;89.97;96312.84;107879;1283;33988;-76
2021/12/20 00:58:56;;;;;;;4.00;2.50;;;;;;;-0.49;89.83;96313.65;107792;1284;48618;-76
2021/12/20 01:01:25;;;;;;;4.60;2.20;;;;;;;-0.51;90.06;96311.95;107781;1282;37493;-76
2021/12/20 01:03:53;;;;;;;7.90;3.20;;;;;;;-0.51;90.06;96309.60;107787;1283;37745;-76
2021/12/20 01:06:22;;;;;;;3.10;2.30;;;;;;;-0.52;90.24;96322.38;107864;1283;32062;-76
2021/12/20 01:08:51;;;;;;;9.00;3.10;;;;;;;-0.53;89.94;96316.59;107769;1284;32842;-76
2021/12/20 01:11:23;;;;;;;6.10;3.30;;;;;;;-0.51;90.18;96315.08;107773;1283;33891;-76
2021/12/20 01:13:53;;;;;;;9.10;4.10;;;;;;;-0.48;90.35;96315.92;107781;1283;37708;-76
2021/12/20 01:16:30;;;;;;;4.20;2.40;;;;;;;-0.51;90.15;96313.88;107745;1284;40258;-76
2021/12/20 01:18:59;;;;;;;7.20;3.70;;;;;;;-0.53;89.95;96308.94;107679;1284;40501;-76
2021/12/20 01:21:29;;;;;;;3.30;2.00;;;;;;;-0.57;89.94;96309.03;107890;1282;31995;-76
2021/12/20 01:23:57;;;;;;;4.40;2.80;;;;;;;-0.62;90.14;96313.77;107768;1284;31900;-76
2021/12/20 01:26:26;;;;;;;8.00;3.30;;;;;;;-0.65;89.62;96315.56;107750;1282;34757;-76
2021/12/20 01:28:54;;;;;;;7.30;3.30;;;;;;;-0.63;90.11;96307.73;107892;1283;29765;-76
2021/12/20 01:31:23;;;;;;;5.80;3.30;;;;;;;-0.62;89.85;96304.68;107697;1283;49184;-76
2021/12/20 01:33:54;;;;;;;5.30;3.00;;;;;;;-0.63;89.25;96302.08;107765;1284;29167;-76
2021/12/20 01:36:23;;;;;;;5.70;3.20;;;;;;;-0.65;89.15;96305.39;107735;1283;42774;-77
2021/12/20 01:38:54;;;;;;;5.30;2.70;;;;;;;-0.66;89.00;96301.41;107722;1283;40942;-77
2021/12/20 01:41:22;;;;;;;4.70;2.50;;;;;;;-0.65;88.83;96304.23;107797;1284;33482;-76
2021/12/20 01:43:50;;;;;;;6.50;2.90;;;;;;;-0.68;88.76;96302.98;107790;1284;32391;-76
2021/12/20 01:46:19;;;;;;;2.00;1.10;;;;;;;-0.69;88.27;96308.36;107899;1283;34209;-76
2021/12/20 01:48:48;;;;;;;3.80;2.50;;;;;;;-0.69;87.80;96309.44;107748;1284;66903;-77
2021/12/20 01:51:32;;;;;;;5.40;2.40;;;;;;;-0.68;88.02;96303.23;107761;1283;35675;-77
2021/12/20 01:54:02;;;;;;;5.20;2.40;;;;;;;-0.68;87.95;96301.27;107742;1283;41177;-76
2021/12/20 01:56:33;;;;;;;5.20;2.10;;;;;;;-0.67;87.85;96293.05;107795;1283;32666;-76
2021/12/20 01:59:04;;;;;;;2.10;1.60;;;;;;;-0.68;86.81;96298.95;107727;1284;34301;-76
2021/12/20 02:01:33;;;;;;;5.60;2.40;;;;;;;-0.67;86.50;96294.56;107735;1284;38346;-76
2021/12/20 02:04:05;;;;;;;8.00;2.90;;;;;;;-0.68;86.51;96301.52;107786;1283;36876;-77
2021/12/20 02:06:38;;;;;;;3.80;2.10;;;;;;;-0.68;87.23;96300.38;107725;1283;48354;-77
2021/12/20 02:09:09;;;;;;;5.60;2.40;;;;;;;-0.65;87.14;96304.92;107768;1284;42993;-76
2021/12/20 02:11:39;;;;;;;6.20;2.80;;;;;;;-0.65;87.00;96292.86;107895;1284;37716;-77
2021/12/20 02:14:10;;;;;;;4.20;2.10;;;;;;;-0.67;86.53;96291.39;107730;1284;44567;-77
2021/12/20 02:16:40;;;;;;;3.60;2.40;;;;;;;-0.67;86.40;96292.16;107917;1283;34462;-77
2021/12/20 02:19:11;;;;;;;4.00;2.20;;;;;;;-0.68;86.37;96302.14;107748;1283;38969;-77
2021/12/20 02:21:40;;;;;;;1.80;1.40;;;;;;;-0.67;85.98;96294.65;107823;1284;32986;-76
2021/12/20 02:24:09;;;;;;;1.60;1.30;;;;;;;-0.68;85.39;96285.84;107928;1284;35261;-76
2021/12/20 02:26:37;;;;;;;6.50;2.00;;;;;;;-0.68;84.82;96294.42;107841;1283;46114;-76
2021/12/20 02:29:08;;;;;;;4.10;1.70;;;;;;;-0.69;85.00;96292.11;107833;1283;43278;-76
2021/12/20 02:37:26;;;;;;;3.30;1.60;;;;;;;-0.71;84.78;96293.58;107937;1284;31631;-76
2021/12/20 02:39:55;;;;;;;4.50;1.40;;;;;;;-0.71;84.17;96298.20;107764;1283;31315;-76
2021/12/20 02:42:30;;;;;;;6.80;1.80;;;;;;;-0.72;84.31;96292.95;107714;1282;37095;-77
2021/12/20 02:45:10;;;;;;;6.00;1.70;;;;;;;-0.72;84.63;96298.71;107779;1284;31035;-76
2021/12/20 02:47:42;;;;;;;6.60;2.10;;;;;;;-0.72;84.52;96292.04;107856;1283;36099;-76
2021/12/20 02:50:12;;;;;;;4.80;1.50;;;;;;;-0.74;84.31;96299.06;108001;1284;42904;-77
2021/12/20 02:52:41;;;;;;;6.70;2.90;;;;;;;-0.75;84.52;96297.74;107804;1283;29559;-76
2021/12/20 02:55:11;;;;;;;4.90;1.50;;;;;;;-0.75;84.44;96296.86;107812;1284;36715;-76
2021/12/20 02:57:40;;;;;;;4.20;2.10;;;;;;;-0.75;84.83;96288.90;107828;1283;34606;-76
2021/12/20 03:00:14;;;;;;;2.70;1.50;;;;;;;-0.76;84.72;96293.55;107938;1284;32592;-76
2021/12/20 03:02:42;;;;;;;5.40;2.70;;;;;;;-0.76;84.71;96289.95;107801;1284;55233;-76
2021/12/20 03:05:12;;;;;;;5.50;2.60;;;;;;;-0.77;84.89;96290.77;107814;1284;34127;-76
2021/12/20 03:07:45;;;;;;;;;;;;;;;-0.77;85.01;96280.73;107832;1283;32971;-76
2021/12/20 03:10:15;;;;;;;8.30;2.70;;;;;;;-0.78;84.56;96283.30;107723;1284;45357;-76
2021/12/20 03:12:44;;;;;;;5.80;2.60;;;;;;;-0.77;84.90;96291.20;107771;1284;34031;-76
2021/12/20 03:15:18;;;;;;;6.60;3.10;;;;;;;-0.78;85.18;96289.21;107810;1282;30467;-76
2021/12/20 03:17:46;;;;;;;4.60;2.70;;;;;;;-0.80;85.36;96285.27;107759;1283;42496;-76
2021/12/20 03:20:18;;;;;;;4.40;2.00;;;;;;;-0.80;85.10;96289.12;107809;1282;39568;-76
2021/12/20 03:22:46;;;;;;;7.20;3.60;;;;;;;-0.80;85.29;96298.64;107744;1283;45623;-76
2021/12/20 03:25:15;;;;;;;6.00;2.80;;;;;;;-0.78;85.35;96292.34;107757;1284;38248;-76
2021/12/20 03:27:43;;;;;;;5.40;3.20;;;;;;;-0.78;85.68;96284.17;107803;1284;46747;-76
2021/12/20 03:30:17;;;;;;;4.40;3.00;;;;;;;-0.82;85.81;96289.89;107811;1284;33626;-76
2021/12/20 03:32:45;;;;;;;6.70;3.10;;;;;;;-0.83;85.85;96295.43;107854;1284;46793;-76
2021/12/20 03:35:14;;;;;;;9.40;2.60;;;;;;;-0.81;85.71;96296.73;107724;1284;35371;-76
2021/12/20 03:37:43;;;;;;;8.10;3.00;;;;;;;-0.82;85.87;96291.19;107764;1284;37201;-76
2021/12/20 03:40:13;;;;;;;10.80;4.00;;;;;;;-0.87;86.26;96288.20;107929;1284;31673;-76
2021/12/20 03:42:43;;;;;;;6.60;3.20;;;;;;;-0.89;86.38;96289.39;107828;1282;38208;-76
2021/12/20 03:45:13;;;;;;;5.80;2.70;;;;;;;-0.91;86.18;96300.73;107812;1283;53376;-76
2021/12/20 03:47:42;;;;;;;6.10;2.50;;;;;;;-0.93;86.28;96297.40;107855;1284;27485;-76
2021/12/20 03:50:13;;;;;;;4.90;2.50;;;;;;;-0.95;86.23;96295.27;107836;1284;36541;-76
2021/12/20 03:52:42;;;;;;;8.70;4.20;;;;;;;-0.96;86.11;96295.08;107826;1282;41032;-76
2021/12/20 03:55:12;;;;;;;4.40;2.70;;;;;;;-0.97;86.06;96294.80;107885;1283;39040;-76
2021/12/20 03:57:41;;;;;;;2.60;1.50;;;;;;;-0.96;85.77;96301.95;107870;1282;38166;-76
2021/12/20 04:00:13;;;;;;;4.40;2.80;;;;;;;-0.95;85.64;96308.23;107823;1283;39252;-76
2021/12/20 04:02:45;;;;;;;5.20;2.10;;;;;;;-0.95;85.57;96288.25;107787;1284;30474;-76
2021/12/20 04:05:14;;;;;;;5.50;3.10;;;;;;;-0.94;85.38;96302.77;107753;1284;38634;-76
2021/12/20 04:07:45;;;;;;;5.50;2.30;;;;;;;-0.94;85.33;96290.61;107754;1284;40530;-76
2021/12/20 04:10:14;;;;;;;4.40;2.00;;;;;;;-0.95;84.80;96280.85;107749;1284;39205;-76
2021/12/20 04:12:43;;;;;;;3.30;1.80;;;;;;;-0.95;84.55;96286.01;107845;1284;30328;-76
2021/12/20 04:15:11;;;;;;;2.60;1.60;;;;;;;-0.95;84.30;96283.89;107760;1283;38586;-76
2021/12/20 04:17:40;;;;;;;3.30;2.10;;;;;;;-0.95;84.32;96282.77;107807;1282;38408;-76
2021/12/20 04:20:10;;;;;;;3.10;1.40;;;;;;;-0.95;84.41;96283.80;107925;1284;30624;-76
2021/12/20 04:22:39;;;;;;;4.70;1.80;;;;;;;-0.94;83.62;96284.59;107864;1283;42841;-76
2021/12/20 04:25:09;;;;;;;2.70;1.50;;;;;;;-0.93;83.71;96288.14;107765;1284;31794;-76
2021/12/20 04:27:38;;;;;;;1.70;1.40;;;;;;;-0.92;83.08;96293.27;107743;1282;45457;-76
2021/12/20 04:30:10;;;;;;;2.50;1.40;;;;;;;-0.91;83.02;96275.64;107774;1283;37940;-76
2021/12/20 04:32:40;;;;;;;4.10;2.10;;;;;;;-0.90;82.22;96273.02;107860;1284;34749;-76
2021/12/20 04:35:12;;;;;;;3.70;2.00;;;;;;;-0.89;82.22;96294.19;107915;1278;44404;-76
2021/12/20 04:37:43;;;;;;;2.60;1.40;;;;;;;-0.91;82.75;96291.20;107860;1283;42302;-76
2021/12/20 04:40:18;;;;;;;2.40;1.20;;;;;;;-0.92;82.58;96288.79;107844;1283;42275;-76
2021/12/20 04:42:47;;;;;;;5.00;1.70;;;;;;;-0.92;82.55;96287.50;107731;1283;54627;-77
2021/12/20 04:45:18;;;;;;;3.40;2.20;;;;;;;-0.92;82.74;96292.90;107746;1281;49397;-76
2021/12/20 04:47:47;;;;;;;3.90;2.80;;;;;;;-0.94;83.03;96301.61;107756;1283;35296;-76
2021/12/20 04:50:18;;;;;;;2.80;2.00;;;;;;;-0.95;83.34;96303.86;107807;1282;47684;-75
2021/12/20 04:52:47;;;;;;;3.50;1.70;;;;;;;-0.95;83.17;96298.70;107780;1284;34133;-76
2021/12/20 04:55:16;;;;;;;3.60;2.10;;;;;;;-0.96;83.64;96308.77;107755;1283;28059;-75
2021/12/20 04:57:47;;;;;;;5.40;2.20;;;;;;;-0.98;83.64;96315.58;107784;1284;33199;-75
2021/12/20 05:00:19;;;;;;;3.00;1.90;;;;;;;-0.98;83.57;96283.02;107824;1283;36295;-76
2021/12/20 05:02:48;;;;;;;3.70;2.50;;;;;;;-0.97;82.77;96309.52;107816;1284;40407;-75
2021/12/20 05:05:17;;;;;;;3.20;1.80;;;;;;;-0.96;83.09;96294.91;107829;1284;36031;-75
2021/12/20 05:07:46;;;;;;;3.00;2.00;;;;;;;-0.99;83.31;96314.90;107701;1282;76237;-75
2021/12/20 05:10:26;;;;;;;2.60;1.80;;;;;;;-1.03;83.45;96315.60;107805;1284;33258;-75
2021/12/20 05:12:57;;;;;;;3.30;2.00;;;;;;;-1.05;83.55;96300.89;107731;1283;45900;-76
2021/12/20 05:15:26;;;;;;;4.80;2.20;;;;;;;-1.04;83.85;96333.30;107749;1283;34525;-75
2021/12/20 05:17:55;;;;;;;4.70;2.30;;;;;;;-1.05;84.11;96332.91;107803;1283;36226;-76
2021/12/20 05:20:24;;;;;;;1.50;1.00;;;;;;;-1.08;84.33;96326.89;107747;1284;37027;-76
2021/12/20 05:22:54;;;;;;;4.40;1.70;;;;;;;-1.09;83.88;96322.34;107766;1283;30290;-75
2021/12/20 05:25:24;;;;;;;3.40;2.00;;;;;;;-1.07;83.61;96325.05;107758;1283;36072;-75
2021/12/20 05:27:53;;;;;;;3.90;1.80;;;;;;;-1.06;83.56;96326.35;107732;1284;35907;-76
2021/12/20 05:30:22;;;;;;;3.80;2.00;;;;;;;-1.05;83.75;96320.59;107749;1284;40448;-75
2021/12/20 05:32:51;;;;;;;4.30;2.20;;;;;;;-1.05;83.44;96316.63;107773;1284;34845;-75
2021/12/20 05:35:20;;;;;;;3.00;1.70;;;;;;;-1.05;83.42;96317.98;107807;1283;42802;-75
2021/12/20 05:37:50;;;;;;;1.50;1.20;;;;;;;-1.05;83.62;96321.95;107755;1283;47696;-76
2021/12/20 05:40:20;;;;;;;2.60;1.80;;;;;;;-1.06;83.86;96325.40;107843;1282;32087;-76
2021/12/20 05:42:48;;;;;;;2.70;1.60;;;;;;;-1.08;84.07;96328.58;107746;1284;42655;-76
2021/12/20 05:45:18;;;;;;;5.30;1.90;;;;;;;-1.08;83.78;96333.66;107739;1283;39868;-76
2021/12/20 05:47:47;;;;;;;3.40;2.10;;;;;;;-1.07;84.06;96326.92;107720;1284;47494;-76
2021/12/20 05:50:19;;;;;;;3.40;1.70;;;;;;;-1.07;84.25;96333.33;107831;1284;42028;-76
2021/12/20 05:52:47;;;;;;;3.70;2.30;;;;;;;-1.08;84.27;96328.50;107825;1284;41227;-76
2021/12/20 05:55:17;;;;;;;3.20;2.20;;;;;;;-1.09;84.64;96330.51;107811;1284;35810;-76
2021/12/20 05:57:46;;;;;;;3.30;1.80;;;;;;;-1.13;85.28;96334.13;107756;1283;33281;-76
2021/12/20 06:00:18;;;;;;;5.60;2.60;;;;;;;-1.18;85.28;96337.45;107706;1282;40906;-76
2021/12/20 06:02:50;;;;;;;4.70;2.20;;;;;;;-1.18;85.64;96332.60;107836;1284;36369;-76
2021/12/20 06:05:20;;;;;;;3.30;2.10;;;;;;;-1.17;85.75;96326.23;107872;1281;38297;-76
2021/12/20 06:07:48;;;;;;;3.30;1.70;;;;;;;-1.15;85.88;96335.81;107740;1283;43007;-76
2021/12/20 06:10:19;;;;;;;2.90;1.50;;;;;;;-1.16;85.95;96344.14;107789;1284;43714;-76
2021/12/20 06:12:48;;;;;;;2.00;1.20;;;;;;;-1.17;86.05;96344.16;107755;1283;34903;-76
2021/12/20 06:15:17;;;;;;;4.90;2.30;;;;;;;-1.19;86.47;96342.45;107721;1284;36183;-76
2021/12/20 06:17:45;;;;;;;2.70;1.70;;;;;;;-1.20;86.88;96347.23;107741;1284;34712;-76
2021/12/20 06:20:17;;;;;;;5.10;1.80;;;;;;;-1.23;87.32;96351.77;107753;1282;48175;-76
2021/12/20 06:22:46;;;;;;;3.70;1.70;;;;;;;-1.22;87.65;96375.56;107772;1281;57576;-76
2021/12/20 06:25:17;;;;;;;4.30;2.80;;;;;;;-1.21;87.71;96385.52;107717;1283;37384;-76
2021/12/20 06:27:47;;;;;;;5.40;2.70;;;;;;;-1.21;87.60;96391.36;107804;1283;40654;-76
2021/12/20 06:30:15;;;;;;;;;;;;;;;-1.19;87.69;96381.78;107854;1283;41633;-76
2021/12/20 06:32:45;;;;;;;4.20;2.50;;;;;;;-1.17;87.71;96386.93;107861;1283;39290;-76
2021/12/20 06:35:14;;;;;;;3.80;2.70;;;;;;;-1.17;87.56;96387.92;107870;1284;29855;-76
2021/12/20 06:37:47;;;;;;;2.20;1.70;;;;;;;-1.17;87.70;96388.09;107776;1284;50929;-76
2021/12/20 06:40:17;;;;;;;3.80;2.00;;;;;;;-1.17;87.66;96398.13;107747;1283;33988;-75
2021/12/20 06:42:45;;;;;;;5.90;3.40;;;;;;;-1.16;87.70;96389.25;107751;1284;50130;-76
2021/12/20 06:45:14;;;;;;;6.50;3.20;;;;;;;-1.15;88.14;96399.88;107765;1284;38058;-76
2021/12/20 06:47:42;;;;;;;3.70;1.80;;;;;;;-1.19;88.21;96407.59;107888;1283;44315;-76
2021/12/20 06:50:11;;;;;;;5.30;2.30;;;;;;;-1.21;88.38;96400.08;107882;1281;32193;-76
2021/12/20 06:52:41;;;;;;;4.60;1.80;;;;;;;-1.23;88.75;96396.90;107842;1283;42663;-76
2021/12/20 06:55:11;;;;;;;4.10;2.00;;;;;;;-1.25;89.01;96400.44;107822;1283;33323;-76
2021/12/20 06:57:40;;;;;;;5.40;2.50;;;;;;;-1.25;89.17;96414.15;107846;1284;37506;-76
2021/12/20 07:00:10;;;;;;;4.10;2.40;;;;;;;-1.24;88.65;96422.80;107822;1284;40495;-76
2021/12/20 07:02:39;;;;;;;3.60;2.40;;;;;;;-1.19;88.51;96426.24;107832;1284;33233;-76
2021/12/20 07:05:10;;;;;;;5.10;3.10;;;;;;;-1.17;88.60;96418.20;107771;1283;71532;-76
2021/12/20 07:07:39;;;;;;;3.30;2.00;;;;;;;-1.18;88.83;96419.99;107761;1284;39398;-76
2021/12/20 07:10:10;;;;;;;5.10;2.40;;;;;;;-1.18;88.77;96416.23;107741;1283;41466;-76
2021/12/20 07:12:40;;;;;;;4.20;2.60;;;;;;;-1.18;88.87;96421.59;107995;1283;36262;-75
2021/12/20 07:15:11;;;;;;;5.60;3.00;;;;;;;-1.20;89.25;96425.73;107657;1283;35575;-76
2021/12/20 07:17:41;;;;;;;4.50;2.10;;;;;;;-1.22;89.37;96425.18;107833;1284;33645;-75
2021/12/20 07:20:13;;;;;;;3.10;1.70;;;;;;;-1.26;90.53;96416.71;107918;1278;37175;-75
2021/12/20 07:22:44;;;;;;;2.90;2.10;;;;;;;-1.32;91.29;96418.02;107979;1284;33180;-75
2021/12/20 07:25:20;;;;;;;3.80;1.60;;;;;;;-1.32;91.63;96417.27;107887;1282;26946;-75
2021/12/20 07:27:53;;;;;;;3.50;2.60;;;;;;;-1.33;91.79;96428.70;107878;1283;35115;-75
2021/12/20 07:30:22;;;;;;;3.30;2.30;;;;;;;-1.32;91.51;96423.83;107860;1283;36464;-75
2021/12/20 07:32:55;;;;;;;3.80;2.30;;;;;;;-1.32;91.72;96420.58;105350;1282;3305002;-75
2021/12/20 07:35:25;;;;;;;3.60;2.00;;;;;;;-1.28;91.79;96423.80;107849;1283;31058;-75
2021/12/20 07:37:59;;;;;;;5.00;2.70;;;;;;;-1.27;91.82;96434.16;107775;1283;37859;-76
2021/12/20 07:40:28;;;;;;;4.60;2.60;;;;;;;-1.25;91.67;96429.09;107844;1283;31521;-76
2021/12/20 07:43:00;;;;;;;3.50;2.20;;;;;;;-1.25;91.79;96424.36;107780;1283;44795;-76
2021/12/20 07:45:29;;;;;;;4.10;2.90;;;;;;;-1.25;91.95;96432.73;107778;1284;41879;-76
2021/12/20 07:47:58;;;;;;;5.60;2.80;;;;;;;-1.26;92.02;96436.48;107771;1284;35134;-76
2021/12/20 07:50:27;;;;;;;2.80;2.40;;;;;;;-1.24;91.85;96437.88;107755;1283;44912;-75
2021/12/20 07:52:55;;;;;;;5.20;3.00;;;;;;;-1.19;91.97;96437.23;107718;1283;36609;-75
2021/12/20 07:55:24;;;;;;;3.70;2.10;;;;;;;-1.13;91.57;96430.36;107734;1283;37908;-75
2021/12/20 07:57:53;;;;;;;3.10;1.60;;;;;;;-1.09;91.48;96430.67;107717;1283;41854;-76
2021/12/20 08:00:24;;;;;;;3.20;1.90;;;;;;;-1.06;91.13;96430.66;107726;1283;40890;-76
2021/12/20 08:02:56;;;;;;;4.00;2.80;;;;;;;-1.05;90.93;96426.48;107725;1283;42221;-76
2021/12/20 08:05:25;;;;;;;3.00;2.00;;;;;;;-1.02;90.60;96442.79;107780;1282;47150;-75
2021/12/20 08:07:54;;;;;;;3.00;1.80;;;;;;;-1.02;90.26;96439.14;107777;1283;37234;-76
2021/12/20 08:10:26;;;;;;;3.40;2.00;;;;;;;-1.02;90.04;96436.86;107710;1283;37749;-75
2021/12/20 08:13:00;;;;;;;4.60;2.60;;;;;;;-1.02;89.71;96433.59;107754;1282;40142;-75
2021/12/20 08:15:29;;;;;;;5.20;2.50;;;;;;;-1.03;89.70;96438.66;107739;1284;30207;-76
2021/12/20 08:17:59;;;;;;;5.60;3.80;;;;;;;-1.03;89.71;96444.27;107807;1283;38028;-75
2021/12/20 08:20:28;;;;;;;3.30;1.80;;;;;;;-1.03;89.39;96431.63;107725;1284;40794;-75
2021/12/20 08:22:56;;;;;;;4.60;2.40;;;;;;;-1.02;89.35;96411.89;107786;1282;47858;-75
2021/12/20 08:25:25;;;;;;;3.70;2.30;;;;;;;-0.99;89.10;96429.20;107755;1282;38308;-76
2021/12/20 08:27:54;;;;;;;4.30;2.30;;;;;;;-0.98;88.99;96443.50;107681;1282;54219;-76
2021/12/20 08:30:24;;;;;;;4.40;2.30;;;;;;;-0.97;89.13;96440.13;107752;1283;31657;-76
2021/12/20 08:32:53;;;;;;;4.40;2.10;;;;;;;-0.95;89.03;96449.01;107844;1283;32282;-76
2021/12/20 08:35:25;;;;;;;3.00;1.80;;;;;;;-0.92;88.84;96451.06;107752;1283;42770;-76
2021/12/20 08:37:54;;;;;;;2.80;1.90;;;;;;;-0.90;88.36;96454.65;107846;1282;27548;-76
2021/12/20 08:40:24;;;;;;;4.30;1.90;;;;;;;-0.89;88.20;96455.52;107699;1282;49819;-76
2021/12/20 08:42:52;;;;;;;5.20;2.50;;;;;;;-0.88;87.97;96447.67;107975;1281;33011;-76
2021/12/20 08:45:21;;;;;;;5.10;2.50;;;;;;;-0.87;87.75;96456.10;107724;1284;43840;-76
2021/12/20 08:47:52;;;;;;;2.80;1.70;;;;;;;-0.87;87.89;96440.58;107764;1282;34128;-76
2021/12/20 08:50:23;;;;;;;3.60;2.00;;;;;;;-0.90;88.15;96457.61;107729;1281;53301;-76
2021/12/20 08:52:52;;;;;;;2.80;2.10;;;;;;;-0.93;88.36;96457.23;107767;1282;37752;-76
2021/12/20 08:55:21;;;;;;;3.40;2.10;;;;;;;-0.94;88.50;96459.65;107821;1282;37437;-76
2021/12/20 08:57:54;;;;;;;4.10;2.50;;;;;;;-0.96;88.79;96460.15;107759;1284;35719;-76
2021/12/20 09:00:25;;;;;;;3.10;2.30;;;;;;;-1.00;89.06;96461.54;107801;1281;39428;-76
2021/12/20 09:02:55;;;;;;;3.20;2.50;;;;;;;-0.99;89.51;96462.58;107723;1283;32690;-76
2021/12/20 09:05:27;;;;;;;6.50;2.70;;;;;;;-0.98;89.62;96463.75;107837;1282;39829;-76
2021/12/20 09:08:01;;;;;;;3.90;2.70;;;;;;;-0.96;89.78;96454.69;107777;1282;37359;-75
2021/12/20 09:10:34;;;;;;;3.20;2.50;;;;;;;-0.96;89.74;96467.19;107711;1283;33819;-76
2021/12/20 09:13:05;;;;;;;5.60;2.10;;;;;;;-0.95;89.62;96467.30;107730;1284;39658;-75
2021/12/20 09:15:36;;;;;;;3.40;2.60;;;;;;;-0.97;90.03;96463.39;107822;1282;29590;-76
2021/12/20 09:18:07;;;;;;;6.00;3.40;;;;;;;-0.98;89.95;96463.84;107846;1282;38357;-76
2021/12/20 09:20:37;;;;;;;6.20;2.50;;;;;;;-0.95;90.03;96467.83;107765;1281;30185;-75
2021/12/20 09:23:08;;;;;;;7.90;4.60;;;;;;;-0.92;90.00;96468.48;107776;1283;41429;-76
2021/12/20 09:25:40;;;;;;;5.60;3.20;;;;;;;-0.88;89.78;96474.17;107762;1283;33302;-76
2021/12/20 09:28:11;;;;;;;7.00;3.40;;;;;;;-0.86;89.65;96463.83;107818;1283;46919;-76
2021/12/20 09:30:43;;;;;;;4.40;2.70;;;;;;;-0.87;89.89;96465.77;107721;1283;63551;-75
2021/12/20 09:33:13;;;;;;;5.60;2.60;;;;;;;-0.86;89.68;96451.50;107818;1282;33629;-76
2021/12/20 09:35:42;;;;;;;5.30;2.70;;;;;;;-0.85;89.27;96446.64;107844;1283;30740;-76
2021/12/20 09:38:16;;;;;;;4.50;3.20;;;;;;;-0.86;89.45;96456.14;107796;1283;38233;-76
2021/12/20 09:41:12;;;;;;;2.40;2.00;;;;;;;-0.85;89.41;96462.87;107753;1284;42368;-76
2021/12/20 09:43:43;;;;;;;3.90;2.40;;;;;;;-0.85;89.55;96455.93;107784;1283;35688;-76
2021/12/20 09:46:12;;;;;;;6.30;4.20;;;;;;;-0.87;89.83;96443.09;107842;1281;34044;-76
2021/12/20 09:48:45;;;;;;;3.80;2.80;;;;;;;-0.87;89.59;96454.98;107865;1283;33873;-76
2021/12/20 09:51:14;;;;;;;6.90;4.30;;;;;;;-0.87;89.53;96435.08;107806;1283;35425;-76
2021/12/20 09:53:43;;;;;;;9.70;4.40;;;;;;;-0.87;89.98;96455.31;107795;1283;26883;-76
2021/12/20 09:56:12;;;;;;;4.50;3.10;;;;;;;-0.87;89.68;96452.30;107972;1282;32286;-76
2021/12/20 09:58:41;;;;;;;7.40;4.50;;;;;;;-0.87;89.75;96452.91;107807;1283;37352;-76
2021/12/20 10:01:13;;;;;;;6.20;3.70;;;;;;;-0.88;89.62;96456.00;107818;1284;41751;-76
2021/12/20 10:03:44;;;;;;;5.80;3.10;;;;;;;-0.87;89.95;96455.98;107803;1283;38585;-76
2021/12/20 10:06:11;;;;;;;;;;;;;;;-0.89;89.99;96451.72;107814;1282;41466;-76
2021/12/20 10:08:50;;;;;;;4.60;3.20;;;;;;;-0.91;90.02;96454.94;107833;1281;32504;-75
2021/12/20 10:11:26;;;;;;;8.50;4.30;;;;;;;-0.93;90.11;96465.23;107767;1282;32404;-75
2021/12/20 10:14:06;;;;;;;6.90;3.90;;;;;;;-0.93;90.39;96462.20;107806;1282;41963;-75
2021/12/20 10:16:36;;;;;;;5.70;4.20;;;;;;;-0.92;90.16;96463.80;107698;1283;36289;-75
2021/12/20 10:19:26;;;;;;;10.80;3.90;;;;;;;-0.91;90.18;96454.77;107767;1281;31847;-76
2021/12/20 10:21:56;;;;;;;5.10;3.30;;;;;;;-0.89;90.20;96458.37;107875;1282;37456;-76
2021/12/20 10:24:32;;;;;;;6.30;3.90;;;;;;;-0.87;90.18;96456.39;107710;1283;58561;-76
2021/12/20 10:27:02;;;;;;;6.00;4.00;;;;;;;-0.88;90.48;96459.13;107710;1283;43059;-76
2021/12/20 10:29:30;;;;;;;6.10;2.90;;;;;;;-0.89;90.51;96456.25;107749;1281;31693;-76
2021/12/20 10:31:59;;;;;;;5.30;3.50;;;;;;;-0.87;90.59;96454.11;107727;1284;39060;-76
2021/12/20 10:34:35;;;;;;;5.60;3.40;;;;;;;-0.84;90.83;96458.52;107723;1283;42812;-75
2021/12/20 10:37:05;;;;;;;5.10;2.90;;;;;;;-0.81;90.51;96448.88;107815;1279;40883;-75
2021/12/20 10:39:35;;;;;;;;;;;;;;;-0.82;90.31;96445.89;107821;1283;44335;-76
2021/12/20 10:42:19;;;;;;;7.00;3.90;;;;;;;-0.83;90.13;96456.79;107698;1282;43121;-75
2021/12/20 10:45:08;;;;;;;5.50;3.50;;;;;;;-0.84;90.06;96452.95;107719;1283;54104;-76
2021/12/20 10:47:38;;;;;;;4.80;3.00;;;;;;;-0.84;90.34;96462.16;107742;1281;46723;-75
2021/12/20 10:50:23;;;;;;;4.80;2.10;;;;;;;-0.84;90.34;96454.42;107768;1282;38178;-76
2021/12/20 10:52:53;;;;;;;5.40;3.80;;;;;;;-0.86;90.37;96458.79;107732;1283;35180;-77
2021/12/20 10:55:40;;;;;;;8.20;4.00;;;;;;;-0.88;90.17;96449.87;107729;1283;30586;-76
2021/12/20 10:58:30;;;;;;;4.30;3.00;;;;;;;-0.89;90.21;96461.23;107696;1283;33177;-76
2021/12/20 11:01:23;;;;;;;5.20;3.70;;;;;;;-0.90;90.39;96450.48;107770;1282;37496;-77
2021/12/20 11:04:03;;;;;;;5.50;3.90;;;;;;;-0.93;90.47;96470.69;107744;1283;34709;-77
2021/12/20 11:06:43;;;;;;;6.50;3.80;;;;;;;-0.94;90.66;96463.48;107741;1283;36897;-77
2021/12/20 11:09:20;;;;;;;4.30;2.80;;;;;;;-0.92;90.72;96473.84;107851;1278;42892;-76
2021/12/20 11:11:52;;;;;;;7.10;3.40;;;;;;;-0.89;90.51;96463.89;107796;1282;32425;-74
2021/12/20 11:14:29;;;;;;;6.80;3.10;;;;;;;-0.90;90.34;96471.83;107794;1281;33427;-74
2021/12/20 11:17:02;;;;;;;4.30;2.80;;;;;;;-0.90;90.27;96466.22;107785;1283;37044;-74
2021/12/20 11:19:33;;;;;;;4.10;2.70;;;;;;;-0.88;89.98;96473.85;107811;1282;37129;-74
2021/12/20 11:22:06;;;;;;;3.80;2.80;;;;;;;-0.87;89.87;96466.88;107813;1282;40509;-74
2021/12/20 11:24:39;;;;;;;2.60;2.00;;;;;;;-0.84;89.85;96461.31;107715;1282;34762;-76
2021/12/20 11:27:13;;;;;;;4.70;3.00;;;;;;;-0.83;89.84;96472.08;107745;1283;40212;-76
2021/12/20 11:29:43;;;;;;;4.00;2.80;;;;;;;-0.79;89.49;96478.70;107878;1284;33678;-77
2021/12/20 11:32:11;;;;;;;;;;;;;;;-0.76;89.71;96468.54;107900;1282;33458;-76
2021/12/20 11:34:42;;;;;;;7.90;3.20;;;;;;;-0.76;89.20;96478.99;107837;1282;36545;-77
2021/12/20 11:37:10;;;;;;;;;;;;;;;-0.75;89.51;96465.56;107836;1283;30524;-76
2021/12/20 11:39:43;;;;;;;4.40;3.10;;;;;;;-0.78;89.04;96467.20;107777;1283;33179;-77
2021/12/20 11:42:13;;;;;;;4.50;2.70;;;;;;;-0.78;89.22;96473.95;107905;1283;40537;-77
2021/12/20 11:44:46;;;;;;;9.00;4.40;;;;;;;-0.78;89.34;96467.55;107892;1283;30127;-76
2021/12/20 11:47:28;;;;;;;3.20;2.60;;;;;;;-0.80;89.12;96478.90;107834;1282;33816;-76
2021/12/20 11:49:59;;;;;;;8.70;3.30;;;;;;;-0.77;89.39;96468.98;107821;1282;33302;-76
2021/12/20 11:52:33;;;;;;;5.80;2.60;;;;;;;-0.73;89.49;96464.15;107765;1283;42050;-76